Kezdőlap
METAR-TAF:

METAR-TAF

Repülőterek :

Charles City, Iowa, Amerikai Egyesült Államok

földrajzi szélesség: 43-04N, földrajzi hosszúság: 092-37W, magasság: 343 m

Jelenlegi meteorológiai megfigyelések

A jelentés 23 perccel ezelõtt készült, 06:35 UTC
Szélcsend
Hőmérséklet 12°C
Páratartalom 94%
Légköri nyomás 1020 hPa
Látótávolság: 6.4 km
Szórványos felhőzet 3400 lábon
Szakadozott felhőzet 4000 lábon
Borult 8000 lábon
enyhe esõ

METAR: KCCY 240635Z AUTO 00000KT 4SM -RA SCT034 BKN040 OVC080 12/11 A3013 RMK AO2

Idő: 01:58 (06:58 UTC)


TAF: hiányzik

Meteorológiai megfigyelések és előrejelzések több, mint 4000 repülőtéren (METAR és TAF jelentéseket).

A térképen piros és sárga pontok jelzik az elérhető meteorológiai állomásokat.

Mozgassa az egeret a pont fölött, hogy megjelenjen az állomás neve.

Azután kattintson az időjárási megfigyelések és előrejelzések megtekintéséhez.

A térkép megváltoztatása: kattintson a fekete keresztel jelölt zöld gombra ráközelítéshez, a vonallal jelölt zöld gombra távolításhoz, vagy a zöld nyilakra a szomszédos térképek eléréséhez.


METAR-TAF: